sensor_id;sensor_type;location;lat;lon;timestamp;P1;durP1;ratioP1;P2;durP2;ratioP2
12407;SDS011;6268;48.188;17.134;2023-01-13T00:01:46;15.98;;;14.10;;
12407;SDS011;6268;48.188;17.134;2023-01-13T00:04:15;15.52;;;13.88;;
12407;SDS011;6268;48.188;17.134;2023-01-13T00:06:44;15.48;;;13.93;;
12407;SDS011;6268;48.188;17.134;2023-01-13T00:09:13;15.10;;;13.70;;
12407;SDS011;6268;48.188;17.134;2023-01-13T00:11:43;15.57;;;14.02;;
12407;SDS011;6268;48.188;17.134;2023-01-13T00:14:13;15.05;;;13.65;;
12407;SDS011;6268;48.188;17.134;2023-01-13T00:16:42;15.52;;;13.93;;
12407;SDS011;6268;48.188;17.134;2023-01-13T00:19:11;14.35;;;12.95;;
12407;SDS011;6268;48.188;17.134;2023-01-13T00:21:40;14.68;;;13.18;;
12407;SDS011;6268;48.188;17.134;2023-01-13T00:24:09;14.98;;;13.48;;
12407;SDS011;6268;48.188;17.134;2023-01-13T00:26:39;15.35;;;13.85;;
12407;SDS011;6268;48.188;17.134;2023-01-13T00:29:09;14.75;;;13.45;;
12407;SDS011;6268;48.188;17.134;2023-01-13T00:31:38;15.07;;;13.68;;
12407;SDS011;6268;48.188;17.134;2023-01-13T00:34:07;14.68;;;13.00;;
12407;SDS011;6268;48.188;17.134;2023-01-13T00:36:36;15.03;;;13.60;;
12407;SDS011;6268;48.188;17.134;2023-01-13T00:39:05;16.40;;;14.90;;
12407;SDS011;6268;48.188;17.134;2023-01-13T00:41:34;17.45;;;15.88;;
12407;SDS011;6268;48.188;17.134;2023-01-13T00:44:18;15.77;;;14.30;;
12407;SDS011;6268;48.188;17.134;2023-01-13T00:46:47;17.20;;;14.98;;
12407;SDS011;6268;48.188;17.134;2023-01-13T00:49:16;16.73;;;15.02;;
12407;SDS011;6268;48.188;17.134;2023-01-13T00:51:45;16.83;;;15.10;;
12407;SDS011;6268;48.188;17.134;2023-01-13T00:54:14;17.13;;;14.55;;
12407;SDS011;6268;48.188;17.134;2023-01-13T00:56:44;21.02;;;15.88;;
12407;SDS011;6268;48.188;17.134;2023-01-13T00:59:13;16.15;;;14.00;;
12407;SDS011;6268;48.188;17.134;2023-01-13T01:01:43;20.60;;;15.50;;
12407;SDS011;6268;48.188;17.134;2023-01-13T01:04:12;19.38;;;16.02;;
12407;SDS011;6268;48.188;17.134;2023-01-13T01:06:41;17.83;;;16.10;;
12407;SDS011;6268;48.188;17.134;2023-01-13T01:09:11;18.48;;;15.82;;
12407;SDS011;6268;48.188;17.134;2023-01-13T01:11:41;20.15;;;15.30;;
12407;SDS011;6268;48.188;17.134;2023-01-13T01:14:11;20.65;;;17.48;;
12407;SDS011;6268;48.188;17.134;2023-01-13T01:16:42;19.90;;;17.33;;
12407;SDS011;6268;48.188;17.134;2023-01-13T01:19:11;20.13;;;17.92;;
12407;SDS011;6268;48.188;17.134;2023-01-13T01:21:40;17.95;;;16.15;;
12407;SDS011;6268;48.188;17.134;2023-01-13T01:24:09;19.00;;;17.17;;
12407;SDS011;6268;48.188;17.134;2023-01-13T01:26:38;17.98;;;16.17;;
12407;SDS011;6268;48.188;17.134;2023-01-13T01:29:08;18.30;;;16.50;;
12407;SDS011;6268;48.188;17.134;2023-01-13T01:31:42;19.90;;;16.70;;
12407;SDS011;6268;48.188;17.134;2023-01-13T01:34:11;18.77;;;16.87;;
12407;SDS011;6268;48.188;17.134;2023-01-13T01:36:40;18.73;;;16.30;;
12407;SDS011;6268;48.188;17.134;2023-01-13T01:39:09;18.67;;;16.80;;
12407;SDS011;6268;48.188;17.134;2023-01-13T01:41:39;19.93;;;17.60;;
12407;SDS011;6268;48.188;17.134;2023-01-13T01:47:23;21.00;;;17.80;;
12407;SDS011;6268;48.188;17.134;2023-01-13T01:49:54;17.90;;;16.07;;
12407;SDS011;6268;48.188;17.134;2023-01-13T01:52:27;17.50;;;15.47;;
12407;SDS011;6268;48.188;17.134;2023-01-13T01:55:03;17.33;;;15.48;;
12407;SDS011;6268;48.188;17.134;2023-01-13T01:57:41;17.40;;;15.77;;
12407;SDS011;6268;48.188;17.134;2023-01-13T02:00:17;21.60;;;17.57;;
12407;SDS011;6268;48.188;17.134;2023-01-13T02:02:48;29.63;;;20.03;;
12407;SDS011;6268;48.188;17.134;2023-01-13T02:05:19;26.80;;;19.53;;
12407;SDS011;6268;48.188;17.134;2023-01-13T02:07:50;19.53;;;17.10;;
12407;SDS011;6268;48.188;17.134;2023-01-13T02:10:23;23.83;;;17.70;;
12407;SDS011;6268;48.188;17.134;2023-01-13T02:12:56;22.57;;;17.57;;
12407;SDS011;6268;48.188;17.134;2023-01-13T02:15:31;18.23;;;16.33;;
12407;SDS011;6268;48.188;17.134;2023-01-13T02:18:18;17.73;;;15.93;;
12407;SDS011;6268;48.188;17.134;2023-01-13T02:21:19;17.80;;;15.90;;
12407;SDS011;6268;48.188;17.134;2023-01-13T02:24:22;16.23;;;14.30;;
12407;SDS011;6268;48.188;17.134;2023-01-13T02:27:43;17.30;;;15.70;;
12407;SDS011;6268;48.188;17.134;2023-01-13T02:30:31;16.70;;;15.10;;
12407;SDS011;6268;48.188;17.134;2023-01-13T02:36:28;18.43;;;16.53;;
12407;SDS011;6268;48.188;17.134;2023-01-13T02:39:08;18.10;;;16.20;;
12407;SDS011;6268;48.188;17.134;2023-01-13T02:41:48;19.05;;;16.00;;
12407;SDS011;6268;48.188;17.134;2023-01-13T02:44:41;16.30;;;14.60;;
12407;SDS011;6268;48.188;17.134;2023-01-13T02:47:17;19.13;;;17.13;;
12407;SDS011;6268;48.188;17.134;2023-01-13T02:49:49;20.93;;;17.43;;
12407;SDS011;6268;48.188;17.134;2023-01-13T02:52:23;21.13;;;17.73;;
12407;SDS011;6268;48.188;17.134;2023-01-13T02:55:01;20.33;;;18.27;;
12407;SDS011;6268;48.188;17.134;2023-01-13T02:57:35;19.47;;;17.47;;
12407;SDS011;6268;48.188;17.134;2023-01-13T03:00:08;20.58;;;18.35;;
12407;SDS011;6268;48.188;17.134;2023-01-13T03:02:43;20.67;;;18.63;;
12407;SDS011;6268;48.188;17.134;2023-01-13T03:05:14;20.60;;;18.37;;
12407;SDS011;6268;48.188;17.134;2023-01-13T03:07:48;23.38;;;20.88;;
12407;SDS011;6268;48.188;17.134;2023-01-13T03:10:36;23.48;;;20.15;;
12407;SDS011;6268;48.188;17.134;2023-01-13T03:13:24;22.90;;;19.93;;
12407;SDS011;6268;48.188;17.134;2023-01-13T03:16:21;20.50;;;18.25;;
12407;SDS011;6268;48.188;17.134;2023-01-13T03:19:14;21.73;;;19.23;;
12407;SDS011;6268;48.188;17.134;2023-01-13T03:21:58;21.43;;;17.90;;
12407;SDS011;6268;48.188;17.134;2023-01-13T03:24:39;19.77;;;17.67;;
12407;SDS011;6268;48.188;17.134;2023-01-13T03:27:14;20.17;;;18.07;;
12407;SDS011;6268;48.188;17.134;2023-01-13T03:29:54;19.17;;;17.13;;
12407;SDS011;6268;48.188;17.134;2023-01-13T03:32:29;18.77;;;16.67;;
12407;SDS011;6268;48.188;17.134;2023-01-13T03:35:06;20.43;;;17.57;;
12407;SDS011;6268;48.188;17.134;2023-01-13T03:37:42;21.77;;;19.47;;
12407;SDS011;6268;48.188;17.134;2023-01-13T03:40:19;21.20;;;19.10;;
12407;SDS011;6268;48.188;17.134;2023-01-13T03:42:54;22.33;;;19.93;;
12407;SDS011;6268;48.188;17.134;2023-01-13T03:45:51;22.13;;;19.83;;
12407;SDS011;6268;48.188;17.134;2023-01-13T03:48:26;22.30;;;19.90;;
12407;SDS011;6268;48.188;17.134;2023-01-13T03:51:03;22.37;;;19.90;;
12407;SDS011;6268;48.188;17.134;2023-01-13T03:53:35;24.50;;;21.40;;
12407;SDS011;6268;48.188;17.134;2023-01-13T03:56:16;25.47;;;21.57;;
12407;SDS011;6268;48.188;17.134;2023-01-13T03:58:53;23.93;;;21.37;;
12407;SDS011;6268;48.188;17.134;2023-01-13T04:01:27;25.83;;;22.37;;
12407;SDS011;6268;48.188;17.134;2023-01-13T04:04:04;24.80;;;20.07;;
12407;SDS011;6268;48.188;17.134;2023-01-13T04:06:40;31.83;;;27.53;;
12407;SDS011;6268;48.188;17.134;2023-01-13T04:09:18;25.00;;;21.00;;
12407;SDS011;6268;48.188;17.134;2023-01-13T04:11:59;22.80;;;19.40;;
12407;SDS011;6268;48.188;17.134;2023-01-13T04:14:35;23.87;;;20.23;;
12407;SDS011;6268;48.188;17.134;2023-01-13T04:17:06;26.20;;;20.30;;
12407;SDS011;6268;48.188;17.134;2023-01-13T04:19:35;22.58;;;20.17;;
12407;SDS011;6268;48.188;17.134;2023-01-13T04:22:05;26.60;;;21.17;;
12407;SDS011;6268;48.188;17.134;2023-01-13T04:24:35;23.47;;;20.97;;
12407;SDS011;6268;48.188;17.134;2023-01-13T04:27:04;25.52;;;22.27;;
12407;SDS011;6268;48.188;17.134;2023-01-13T04:29:33;30.53;;;25.70;;
12407;SDS011;6268;48.188;17.134;2023-01-13T04:32:02;27.00;;;23.93;;
12407;SDS011;6268;48.188;17.134;2023-01-13T04:34:31;25.47;;;22.97;;
12407;SDS011;6268;48.188;17.134;2023-01-13T04:37:00;25.47;;;22.50;;
12407;SDS011;6268;48.188;17.134;2023-01-13T04:39:30;29.43;;;24.97;;
12407;SDS011;6268;48.188;17.134;2023-01-13T04:42:00;30.63;;;26.90;;
12407;SDS011;6268;48.188;17.134;2023-01-13T04:44:29;27.20;;;24.57;;
12407;SDS011;6268;48.188;17.134;2023-01-13T04:47:01;27.43;;;24.50;;
12407;SDS011;6268;48.188;17.134;2023-01-13T04:49:30;26.60;;;22.93;;
12407;SDS011;6268;48.188;17.134;2023-01-13T04:51:59;29.10;;;23.43;;
12407;SDS011;6268;48.188;17.134;2023-01-13T04:54:31;30.23;;;24.93;;
12407;SDS011;6268;48.188;17.134;2023-01-13T04:57:00;31.97;;;25.33;;
12407;SDS011;6268;48.188;17.134;2023-01-13T04:59:29;29.60;;;24.57;;
12407;SDS011;6268;48.188;17.134;2023-01-13T05:02:00;28.07;;;24.07;;
12407;SDS011;6268;48.188;17.134;2023-01-13T05:04:29;28.03;;;25.23;;
12407;SDS011;6268;48.188;17.134;2023-01-13T05:06:58;28.73;;;23.87;;
12407;SDS011;6268;48.188;17.134;2023-01-13T05:09:27;30.20;;;27.10;;
12407;SDS011;6268;48.188;17.134;2023-01-13T05:11:58;30.40;;;26.77;;
12407;SDS011;6268;48.188;17.134;2023-01-13T05:14:44;35.38;;;26.42;;
12407;SDS011;6268;48.188;17.134;2023-01-13T05:17:31;35.33;;;29.33;;
12407;SDS011;6268;48.188;17.134;2023-01-13T05:20:00;33.87;;;27.13;;
12407;SDS011;6268;48.188;17.134;2023-01-13T05:22:30;34.30;;;27.63;;
12407;SDS011;6268;48.188;17.134;2023-01-13T05:25:17;31.27;;;27.93;;
12407;SDS011;6268;48.188;17.134;2023-01-13T05:27:52;31.57;;;26.87;;
12407;SDS011;6268;48.188;17.134;2023-01-13T05:30:24;32.97;;;26.53;;
12407;SDS011;6268;48.188;17.134;2023-01-13T05:32:55;33.33;;;26.87;;
12407;SDS011;6268;48.188;17.134;2023-01-13T05:35:25;33.23;;;27.07;;
12407;SDS011;6268;48.188;17.134;2023-01-13T05:37:54;40.47;;;29.63;;
12407;SDS011;6268;48.188;17.134;2023-01-13T05:40:23;38.87;;;30.37;;
12407;SDS011;6268;48.188;17.134;2023-01-13T05:43:12;37.80;;;28.73;;
12407;SDS011;6268;48.188;17.134;2023-01-13T05:45:54;36.43;;;28.43;;
12407;SDS011;6268;48.188;17.134;2023-01-13T05:48:26;37.47;;;27.70;;
12407;SDS011;6268;48.188;17.134;2023-01-13T05:50:57;36.27;;;29.80;;
12407;SDS011;6268;48.188;17.134;2023-01-13T05:53:27;37.43;;;29.40;;
12407;SDS011;6268;48.188;17.134;2023-01-13T05:55:56;34.00;;;29.77;;
12407;SDS011;6268;48.188;17.134;2023-01-13T05:58:27;33.60;;;29.67;;
12407;SDS011;6268;48.188;17.134;2023-01-13T06:00:58;43.13;;;29.30;;
12407;SDS011;6268;48.188;17.134;2023-01-13T06:03:29;42.30;;;30.63;;
12407;SDS011;6268;48.188;17.134;2023-01-13T06:05:58;39.10;;;29.50;;
12407;SDS011;6268;48.188;17.134;2023-01-13T06:08:30;42.90;;;31.57;;
12407;SDS011;6268;48.188;17.134;2023-01-13T06:10:59;42.70;;;31.10;;
12407;SDS011;6268;48.188;17.134;2023-01-13T06:13:30;43.97;;;31.97;;
12407;SDS011;6268;48.188;17.134;2023-01-13T06:15:59;44.90;;;33.63;;
12407;SDS011;6268;48.188;17.134;2023-01-13T06:18:28;44.90;;;32.93;;
12407;SDS011;6268;48.188;17.134;2023-01-13T06:20:57;39.40;;;34.03;;
12407;SDS011;6268;48.188;17.134;2023-01-13T06:23:26;45.83;;;31.33;;
12407;SDS011;6268;48.188;17.134;2023-01-13T06:26:02;42.43;;;31.33;;
12407;SDS011;6268;48.188;17.134;2023-01-13T06:28:40;46.70;;;33.20;;
12407;SDS011;6268;48.188;17.134;2023-01-13T06:31:09;50.00;;;34.10;;
12407;SDS011;6268;48.188;17.134;2023-01-13T06:33:40;45.67;;;33.47;;
12407;SDS011;6268;48.188;17.134;2023-01-13T06:36:15;44.07;;;35.63;;
12407;SDS011;6268;48.188;17.134;2023-01-13T06:38:49;46.97;;;33.83;;
12407;SDS011;6268;48.188;17.134;2023-01-13T06:41:24;46.60;;;30.50;;
12407;SDS011;6268;48.188;17.134;2023-01-13T06:44:11;44.97;;;32.63;;
12407;SDS011;6268;48.188;17.134;2023-01-13T06:46:40;46.70;;;33.70;;
12407;SDS011;6268;48.188;17.134;2023-01-13T06:49:09;49.23;;;32.70;;
12407;SDS011;6268;48.188;17.134;2023-01-13T06:51:38;44.70;;;32.83;;
12407;SDS011;6268;48.188;17.134;2023-01-13T06:54:07;51.40;;;34.00;;
12407;SDS011;6268;48.188;17.134;2023-01-13T06:56:37;46.03;;;32.13;;
12407;SDS011;6268;48.188;17.134;2023-01-13T06:59:06;46.83;;;33.00;;
12407;SDS011;6268;48.188;17.134;2023-01-13T07:01:36;50.77;;;33.87;;
12407;SDS011;6268;48.188;17.134;2023-01-13T07:04:06;45.53;;;31.73;;
12407;SDS011;6268;48.188;17.134;2023-01-13T07:06:35;40.83;;;32.10;;
12407;SDS011;6268;48.188;17.134;2023-01-13T07:09:04;43.80;;;32.47;;
12407;SDS011;6268;48.188;17.134;2023-01-13T07:11:33;41.90;;;33.60;;
12407;SDS011;6268;48.188;17.134;2023-01-13T07:14:02;41.93;;;29.90;;
12407;SDS011;6268;48.188;17.134;2023-01-13T07:16:51;40.63;;;28.20;;
12407;SDS011;6268;48.188;17.134;2023-01-13T07:19:20;40.67;;;29.07;;
12407;SDS011;6268;48.188;17.134;2023-01-13T07:21:50;40.70;;;28.53;;
12407;SDS011;6268;48.188;17.134;2023-01-13T07:24:19;35.90;;;27.87;;
12407;SDS011;6268;48.188;17.134;2023-01-13T07:26:49;39.53;;;29.77;;
12407;SDS011;6268;48.188;17.134;2023-01-13T07:29:19;33.53;;;28.23;;
12407;SDS011;6268;48.188;17.134;2023-01-13T07:31:48;37.40;;;26.73;;
12407;SDS011;6268;48.188;17.134;2023-01-13T07:34:18;35.63;;;26.73;;
12407;SDS011;6268;48.188;17.134;2023-01-13T07:36:48;35.40;;;26.63;;
12407;SDS011;6268;48.188;17.134;2023-01-13T07:39:17;36.53;;;26.47;;
12407;SDS011;6268;48.188;17.134;2023-01-13T07:41:46;33.13;;;26.23;;
12407;SDS011;6268;48.188;17.134;2023-01-13T07:44:33;35.07;;;27.27;;
12407;SDS011;6268;48.188;17.134;2023-01-13T07:47:02;34.80;;;26.07;;
12407;SDS011;6268;48.188;17.134;2023-01-13T07:49:33;34.10;;;25.70;;
12407;SDS011;6268;48.188;17.134;2023-01-13T07:52:08;33.13;;;26.60;;
12407;SDS011;6268;48.188;17.134;2023-01-13T07:54:37;34.90;;;27.77;;
12407;SDS011;6268;48.188;17.134;2023-01-13T07:57:07;32.78;;;27.40;;
12407;SDS011;6268;48.188;17.134;2023-01-13T07:59:36;33.30;;;26.33;;
12407;SDS011;6268;48.188;17.134;2023-01-13T08:02:05;31.13;;;27.03;;
12407;SDS011;6268;48.188;17.134;2023-01-13T08:04:40;31.20;;;26.03;;
12407;SDS011;6268;48.188;17.134;2023-01-13T08:07:09;31.27;;;26.27;;
12407;SDS011;6268;48.188;17.134;2023-01-13T08:09:38;31.20;;;25.53;;
12407;SDS011;6268;48.188;17.134;2023-01-13T08:12:08;30.10;;;25.43;;
12407;SDS011;6268;48.188;17.134;2023-01-13T08:14:54;30.33;;;26.20;;
12407;SDS011;6268;48.188;17.134;2023-01-13T08:17:23;30.43;;;24.63;;
12407;SDS011;6268;48.188;17.134;2023-01-13T08:19:54;30.60;;;27.17;;
12407;SDS011;6268;48.188;17.134;2023-01-13T08:22:23;30.20;;;25.47;;
12407;SDS011;6268;48.188;17.134;2023-01-13T08:24:52;27.73;;;24.03;;
12407;SDS011;6268;48.188;17.134;2023-01-13T08:27:21;27.10;;;23.23;;
12407;SDS011;6268;48.188;17.134;2023-01-13T08:29:53;26.03;;;22.23;;
12407;SDS011;6268;48.188;17.134;2023-01-13T08:32:24;25.40;;;22.43;;
12407;SDS011;6268;48.188;17.134;2023-01-13T08:34:55;25.27;;;21.43;;
12407;SDS011;6268;48.188;17.134;2023-01-13T08:37:43;25.70;;;22.90;;
12407;SDS011;6268;48.188;17.134;2023-01-13T08:40:13;25.07;;;22.07;;
12407;SDS011;6268;48.188;17.134;2023-01-13T08:42:44;28.57;;;22.50;;
12407;SDS011;6268;48.188;17.134;2023-01-13T08:45:14;26.53;;;23.30;;
12407;SDS011;6268;48.188;17.134;2023-01-13T08:47:43;30.13;;;24.60;;
12407;SDS011;6268;48.188;17.134;2023-01-13T08:50:14;29.43;;;24.87;;
12407;SDS011;6268;48.188;17.134;2023-01-13T08:52:43;32.00;;;26.80;;
12407;SDS011;6268;48.188;17.134;2023-01-13T08:55:13;33.50;;;27.00;;
12407;SDS011;6268;48.188;17.134;2023-01-13T08:57:42;37.10;;;30.10;;
12407;SDS011;6268;48.188;17.134;2023-01-13T09:00:11;36.20;;;29.10;;
12407;SDS011;6268;48.188;17.134;2023-01-13T09:02:42;31.30;;;25.93;;
12407;SDS011;6268;48.188;17.134;2023-01-13T09:05:13;30.83;;;26.60;;
12407;SDS011;6268;48.188;17.134;2023-01-13T09:07:43;30.37;;;25.13;;
12407;SDS011;6268;48.188;17.134;2023-01-13T09:10:12;31.47;;;26.17;;
12407;SDS011;6268;48.188;17.134;2023-01-13T09:12:41;31.97;;;24.33;;
12407;SDS011;6268;48.188;17.134;2023-01-13T09:15:27;30.53;;;23.90;;
12407;SDS011;6268;48.188;17.134;2023-01-13T09:17:57;31.40;;;23.43;;
12407;SDS011;6268;48.188;17.134;2023-01-13T09:20:27;28.95;;;24.02;;
12407;SDS011;6268;48.188;17.134;2023-01-13T09:22:56;29.10;;;24.63;;
12407;SDS011;6268;48.188;17.134;2023-01-13T09:25:25;27.40;;;24.13;;
12407;SDS011;6268;48.188;17.134;2023-01-13T09:27:55;30.67;;;25.23;;
12407;SDS011;6268;48.188;17.134;2023-01-13T09:30:24;30.60;;;24.07;;
12407;SDS011;6268;48.188;17.134;2023-01-13T09:32:53;29.30;;;23.80;;
12407;SDS011;6268;48.188;17.134;2023-01-13T09:35:40;27.03;;;22.50;;
12407;SDS011;6268;48.188;17.134;2023-01-13T09:38:09;27.60;;;22.93;;
12407;SDS011;6268;48.188;17.134;2023-01-13T09:40:38;22.47;;;19.57;;
12407;SDS011;6268;48.188;17.134;2023-01-13T09:43:13;20.60;;;18.43;;
12407;SDS011;6268;48.188;17.134;2023-01-13T09:46:09;21.27;;;19.03;;
12407;SDS011;6268;48.188;17.134;2023-01-13T09:48:58;21.27;;;18.37;;
12407;SDS011;6268;48.188;17.134;2023-01-13T09:51:32;21.10;;;18.60;;
12407;SDS011;6268;48.188;17.134;2023-01-13T09:54:12;19.13;;;17.13;;
12407;SDS011;6268;48.188;17.134;2023-01-13T09:56:56;21.07;;;17.53;;
12407;SDS011;6268;48.188;17.134;2023-01-13T09:59:26;19.67;;;16.60;;
12407;SDS011;6268;48.188;17.134;2023-01-13T10:02:10;17.57;;;15.87;;
12407;SDS011;6268;48.188;17.134;2023-01-13T10:05:02;17.50;;;15.63;;
12407;SDS011;6268;48.188;17.134;2023-01-13T10:07:56;17.25;;;15.55;;
12407;SDS011;6268;48.188;17.134;2023-01-13T10:10:33;16.95;;;15.35;;
12407;SDS011;6268;48.188;17.134;2023-01-13T10:13:13;17.03;;;15.23;;
12407;SDS011;6268;48.188;17.134;2023-01-13T10:18:50;15.77;;;14.13;;
12407;SDS011;6268;48.188;17.134;2023-01-13T10:24:49;15.87;;;14.27;;
12407;SDS011;6268;48.188;17.134;2023-01-13T10:27:46;16.23;;;13.77;;
12407;SDS011;6268;48.188;17.134;2023-01-13T10:30:21;16.13;;;14.00;;
12407;SDS011;6268;48.188;17.134;2023-01-13T10:32:57;17.30;;;14.18;;
12407;SDS011;6268;48.188;17.134;2023-01-13T10:35:52;16.13;;;14.53;;
12407;SDS011;6268;48.188;17.134;2023-01-13T10:38:35;14.38;;;12.98;;
12407;SDS011;6268;48.188;17.134;2023-01-13T10:41:16;16.33;;;14.52;;
12407;SDS011;6268;48.188;17.134;2023-01-13T10:43:59;17.38;;;15.27;;
12407;SDS011;6268;48.188;17.134;2023-01-13T10:46:48;15.53;;;13.77;;
12407;SDS011;6268;48.188;17.134;2023-01-13T10:49:28;14.80;;;13.27;;
12407;SDS011;6268;48.188;17.134;2023-01-13T10:52:00;15.17;;;13.63;;
12407;SDS011;6268;48.188;17.134;2023-01-13T10:54:30;14.38;;;13.00;;
12407;SDS011;6268;48.188;17.134;2023-01-13T10:57:16;14.48;;;12.98;;
12407;SDS011;6268;48.188;17.134;2023-01-13T10:59:48;13.03;;;11.63;;
12407;SDS011;6268;48.188;17.134;2023-01-13T11:02:20;12.87;;;11.57;;
12407;SDS011;6268;48.188;17.134;2023-01-13T11:05:01;13.03;;;11.67;;
12407;SDS011;6268;48.188;17.134;2023-01-13T11:07:45;13.40;;;11.35;;
12407;SDS011;6268;48.188;17.134;2023-01-13T11:10:19;12.32;;;11.05;;
12407;SDS011;6268;48.188;17.134;2023-01-13T11:12:58;12.40;;;11.10;;
12407;SDS011;6268;48.188;17.134;2023-01-13T11:15:37;12.20;;;11.10;;
12407;SDS011;6268;48.188;17.134;2023-01-13T11:18:15;13.07;;;11.83;;
12407;SDS011;6268;48.188;17.134;2023-01-13T11:20:53;13.13;;;11.73;;
12407;SDS011;6268;48.188;17.134;2023-01-13T11:23:29;12.67;;;11.17;;
12407;SDS011;6268;48.188;17.134;2023-01-13T11:26:03;14.07;;;12.63;;
12407;SDS011;6268;48.188;17.134;2023-01-13T11:28:45;13.53;;;12.13;;
12407;SDS011;6268;48.188;17.134;2023-01-13T11:31:21;13.48;;;12.25;;
12407;SDS011;6268;48.188;17.134;2023-01-13T11:34:00;14.48;;;13.02;;
12407;SDS011;6268;48.188;17.134;2023-01-13T11:36:42;13.60;;;12.20;;
12407;SDS011;6268;48.188;17.134;2023-01-13T11:39:17;13.80;;;12.53;;
12407;SDS011;6268;48.188;17.134;2023-01-13T11:41:53;12.80;;;11.20;;
12407;SDS011;6268;48.188;17.134;2023-01-13T11:44:50;13.65;;;12.40;;
12407;SDS011;6268;48.188;17.134;2023-01-13T11:47:30;15.93;;;13.70;;
12407;SDS011;6268;48.188;17.134;2023-01-13T11:50:02;16.08;;;14.38;;
12407;SDS011;6268;48.188;17.134;2023-01-13T11:52:47;18.02;;;15.80;;
12407;SDS011;6268;48.188;17.134;2023-01-13T11:55:37;20.95;;;17.80;;
12407;SDS011;6268;48.188;17.134;2023-01-13T11:58:26;11.90;;;10.80;;
12407;SDS011;6268;48.188;17.134;2023-01-13T12:01:29;12.90;;;11.30;;
12407;SDS011;6268;48.188;17.134;2023-01-13T12:04:20;12.23;;;10.93;;
12407;SDS011;6268;48.188;17.134;2023-01-13T12:06:59;13.20;;;11.88;;
12407;SDS011;6268;48.188;17.134;2023-01-13T12:09:49;11.95;;;10.75;;
12407;SDS011;6268;48.188;17.134;2023-01-13T12:12:37;11.90;;;10.73;;
12407;SDS011;6268;48.188;17.134;2023-01-13T12:18:45;11.15;;;10.05;;
12407;SDS011;6268;48.188;17.134;2023-01-13T12:22:06;11.45;;;10.35;;
12407;SDS011;6268;48.188;17.134;2023-01-13T12:24:42;11.43;;;10.40;;
12407;SDS011;6268;48.188;17.134;2023-01-13T12:27:19;11.80;;;10.70;;
12407;SDS011;6268;48.188;17.134;2023-01-13T12:29:57;11.52;;;10.45;;
12407;SDS011;6268;48.188;17.134;2023-01-13T12:32:38;11.70;;;10.50;;
12407;SDS011;6268;48.188;17.134;2023-01-13T12:38:06;11.05;;;9.90;;
12407;SDS011;6268;48.188;17.134;2023-01-13T12:40:44;10.98;;;9.88;;
12407;SDS011;6268;48.188;17.134;2023-01-13T12:43:27;10.93;;;9.57;;
12407;SDS011;6268;48.188;17.134;2023-01-13T12:49:20;11.33;;;10.07;;
12407;SDS011;6268;48.188;17.134;2023-01-13T12:52:10;10.87;;;9.87;;
12407;SDS011;6268;48.188;17.134;2023-01-13T12:57:57;10.80;;;9.80;;
12407;SDS011;6268;48.188;17.134;2023-01-13T13:00:52;11.83;;;10.60;;
12407;SDS011;6268;48.188;17.134;2023-01-13T13:03:38;10.70;;;9.70;;
12407;SDS011;6268;48.188;17.134;2023-01-13T13:06:09;14.60;;;13.18;;
12407;SDS011;6268;48.188;17.134;2023-01-13T13:08:51;12.38;;;11.05;;
12407;SDS011;6268;48.188;17.134;2023-01-13T13:11:34;11.95;;;10.80;;
12407;SDS011;6268;48.188;17.134;2023-01-13T13:18:00;16.25;;;14.52;;
12407;SDS011;6268;48.188;17.134;2023-01-13T13:20:59;20.38;;;16.23;;
12407;SDS011;6268;48.188;17.134;2023-01-13T13:23:39;19.08;;;15.45;;
12407;SDS011;6268;48.188;17.134;2023-01-13T13:26:37;14.00;;;12.60;;
12407;SDS011;6268;48.188;17.134;2023-01-13T13:29:19;14.05;;;12.43;;
12407;SDS011;6268;48.188;17.134;2023-01-13T13:32:30;16.17;;;13.88;;
12407;SDS011;6268;48.188;17.134;2023-01-13T13:35:36;13.25;;;11.95;;
12407;SDS011;6268;48.188;17.134;2023-01-13T13:38:22;12.97;;;11.57;;
12407;SDS011;6268;48.188;17.134;2023-01-13T13:41:33;13.52;;;12.20;;
12407;SDS011;6268;48.188;17.134;2023-01-13T13:44:24;13.18;;;11.88;;
12407;SDS011;6268;48.188;17.134;2023-01-13T13:47:14;13.63;;;12.23;;
12407;SDS011;6268;48.188;17.134;2023-01-13T13:49:44;13.82;;;12.45;;
12407;SDS011;6268;48.188;17.134;2023-01-13T13:52:19;14.05;;;12.52;;
12407;SDS011;6268;48.188;17.134;2023-01-13T13:54:57;14.33;;;12.87;;
12407;SDS011;6268;48.188;17.134;2023-01-13T13:57:37;14.00;;;12.43;;
12407;SDS011;6268;48.188;17.134;2023-01-13T14:00:19;14.50;;;12.75;;
12407;SDS011;6268;48.188;17.134;2023-01-13T14:02:55;15.60;;;12.63;;
12407;SDS011;6268;48.188;17.134;2023-01-13T14:05:28;15.05;;;13.43;;
12407;SDS011;6268;48.188;17.134;2023-01-13T14:07:59;13.90;;;12.50;;
12407;SDS011;6268;48.188;17.134;2023-01-13T14:10:34;17.00;;;14.98;;
12407;SDS011;6268;48.188;17.134;2023-01-13T14:13:13;18.92;;;14.27;;
12407;SDS011;6268;48.188;17.134;2023-01-13T14:15:47;13.68;;;11.90;;
12407;SDS011;6268;48.188;17.134;2023-01-13T14:18:23;17.40;;;13.33;;
12407;SDS011;6268;48.188;17.134;2023-01-13T14:20:54;14.48;;;12.80;;
12407;SDS011;6268;48.188;17.134;2023-01-13T14:23:29;13.68;;;12.35;;
12407;SDS011;6268;48.188;17.134;2023-01-13T14:26:00;15.40;;;13.93;;
12407;SDS011;6268;48.188;17.134;2023-01-13T14:28:37;14.93;;;13.25;;
12407;SDS011;6268;48.188;17.134;2023-01-13T14:31:08;13.57;;;12.18;;
12407;SDS011;6268;48.188;17.134;2023-01-13T14:33:40;16.13;;;13.55;;
12407;SDS011;6268;48.188;17.134;2023-01-13T14:36:14;16.63;;;13.55;;
12407;SDS011;6268;48.188;17.134;2023-01-13T14:38:47;14.88;;;13.30;;
12407;SDS011;6268;48.188;17.134;2023-01-13T14:41:43;15.93;;;13.88;;
12407;SDS011;6268;48.188;17.134;2023-01-13T14:44:17;14.68;;;13.23;;
12407;SDS011;6268;48.188;17.134;2023-01-13T14:46:52;13.93;;;12.63;;
12407;SDS011;6268;48.188;17.134;2023-01-13T14:49:25;15.57;;;13.98;;
12407;SDS011;6268;48.188;17.134;2023-01-13T14:52:05;14.63;;;13.18;;
12407;SDS011;6268;48.188;17.134;2023-01-13T14:54:42;15.90;;;13.65;;
12407;SDS011;6268;48.188;17.134;2023-01-13T14:57:17;17.35;;;13.15;;
12407;SDS011;6268;48.188;17.134;2023-01-13T15:00:04;14.27;;;12.80;;
12407;SDS011;6268;48.188;17.134;2023-01-13T15:02:58;17.13;;;13.35;;
12407;SDS011;6268;48.188;17.134;2023-01-13T15:05:34;16.55;;;14.35;;
12407;SDS011;6268;48.188;17.134;2023-01-13T15:11:06;15.95;;;13.32;;
12407;SDS011;6268;48.188;17.134;2023-01-13T15:13:55;15.30;;;13.52;;
12407;SDS011;6268;48.188;17.134;2023-01-13T15:16:28;17.23;;;14.48;;
12407;SDS011;6268;48.188;17.134;2023-01-13T15:19:00;20.30;;;15.27;;
12407;SDS011;6268;48.188;17.134;2023-01-13T15:21:29;19.80;;;14.73;;
12407;SDS011;6268;48.188;17.134;2023-01-13T15:23:58;16.63;;;13.98;;
12407;SDS011;6268;48.188;17.134;2023-01-13T15:26:28;18.40;;;14.70;;
12407;SDS011;6268;48.188;17.134;2023-01-13T15:29:01;16.30;;;12.70;;
12407;SDS011;6268;48.188;17.134;2023-01-13T15:31:31;15.68;;;13.73;;
12407;SDS011;6268;48.188;17.134;2023-01-13T15:34:00;17.30;;;13.32;;
12407;SDS011;6268;48.188;17.134;2023-01-13T15:36:30;19.27;;;12.80;;
12407;SDS011;6268;48.188;17.134;2023-01-13T15:39:02;15.98;;;13.05;;
12407;SDS011;6268;48.188;17.134;2023-01-13T15:41:31;14.60;;;13.02;;
12407;SDS011;6268;48.188;17.134;2023-01-13T15:44:19;14.80;;;13.15;;